createdAt,value
2019-02-18T00:02:12.956Z,101256.00
2019-02-18T00:04:43.245Z,101266.00
2019-02-18T00:07:14.685Z,101266.00
2019-02-18T00:09:45.481Z,101264.00
2019-02-18T00:12:15.886Z,101268.00
2019-02-18T00:14:46.297Z,101273.00
2019-02-18T00:17:16.613Z,101271.00
2019-02-18T00:19:47.157Z,101268.00
2019-02-18T00:22:17.377Z,101269.00
2019-02-18T00:24:47.756Z,101261.00
2019-02-18T00:27:18.237Z,101266.00
2019-02-18T00:29:48.757Z,101265.00
2019-02-18T00:32:19.010Z,101259.00
2019-02-18T00:34:49.401Z,101265.00
2019-02-18T00:37:24.483Z,101249.00
2019-02-18T00:39:52.007Z,101260.00
2019-02-18T00:42:23.172Z,101258.00
2019-02-18T00:44:53.762Z,101252.00
2019-02-18T00:47:24.342Z,101253.00
2019-02-18T00:49:54.819Z,101245.00
2019-02-18T00:52:25.453Z,101244.00
2019-02-18T00:54:55.928Z,101239.00
2019-02-18T00:57:26.293Z,101243.00
2019-02-18T00:59:56.580Z,101246.00
2019-02-18T01:02:26.828Z,101246.00
2019-02-18T01:04:57.344Z,101255.00
2019-02-18T01:07:34.493Z,101250.00
2019-02-18T01:09:59.745Z,101246.00
2019-02-18T01:12:30.235Z,101240.00
2019-02-18T01:15:02.197Z,101250.00
2019-02-18T01:17:35.559Z,101245.00
2019-02-18T01:20:07.153Z,101247.00
2019-02-18T01:22:37.584Z,101250.00
2019-02-18T01:25:09.446Z,101238.00
2019-02-18T01:27:39.839Z,101255.00
2019-02-18T01:30:13.424Z,101250.00
2019-02-18T01:32:43.928Z,101238.00
2019-02-18T01:35:14.589Z,101239.00
2019-02-18T01:37:46.261Z,101237.00
2019-02-18T01:40:16.640Z,101236.00
2019-02-18T01:42:47.159Z,101233.00
2019-02-18T01:45:17.761Z,101230.00
2019-02-18T01:47:48.820Z,101228.00
2019-02-18T01:50:19.893Z,101233.00
2019-02-18T01:52:50.375Z,101233.00
2019-02-18T01:55:21.947Z,101243.00
2019-02-18T01:57:52.579Z,101242.00
2019-02-18T02:00:23.093Z,101231.00
2019-02-18T02:02:54.628Z,101229.00
2019-02-18T02:05:25.158Z,101232.00
2019-02-18T02:07:56.773Z,101232.00
2019-02-18T02:10:27.365Z,101229.00
2019-02-18T02:13:26.037Z,101229.00
2019-02-18T02:15:56.738Z,101217.00
2019-02-18T02:18:27.657Z,101228.00
2019-02-18T02:20:58.149Z,101218.00
2019-02-18T02:23:28.731Z,101221.00
2019-02-18T02:25:59.476Z,101216.00
2019-02-18T02:28:30.034Z,101228.00
2019-02-18T02:31:01.268Z,101226.00
2019-02-18T02:33:31.961Z,101227.00
2019-02-18T02:36:02.803Z,101226.00
2019-02-18T02:38:33.449Z,101232.00
2019-02-18T02:41:03.803Z,101222.00
2019-02-18T02:43:34.245Z,101227.00
2019-02-18T02:46:04.887Z,101230.00
2019-02-18T02:48:35.397Z,101217.00
2019-02-18T02:51:05.860Z,101215.00
2019-02-18T02:53:36.255Z,101212.00
2019-02-18T02:56:07.087Z,101211.00
2019-02-18T02:58:37.432Z,101207.00
2019-02-18T03:01:08.087Z,101205.00
2019-02-18T03:03:41.390Z,101210.00
2019-02-18T03:06:12.061Z,101212.00
2019-02-18T03:08:42.489Z,101220.00
2019-02-18T03:11:12.925Z,101210.00
2019-02-18T03:13:43.283Z,101210.00
2019-02-18T03:16:13.802Z,101212.00
2019-02-18T03:18:44.569Z,101216.00
2019-02-18T03:21:14.902Z,101224.00
2019-02-18T03:23:45.367Z,101215.00
2019-02-18T03:26:20.221Z,101226.00
2019-02-18T03:29:26.495Z,101217.00
2019-02-18T03:31:57.037Z,101219.00
2019-02-18T03:34:42.763Z,101213.00
2019-02-18T03:37:15.128Z,101220.00
2019-02-18T03:39:47.680Z,101222.00
2019-02-18T03:42:18.021Z,101218.00
2019-02-18T03:44:48.591Z,101208.00
2019-02-18T03:47:18.982Z,101220.00
2019-02-18T03:49:50.181Z,101217.00
2019-02-18T03:52:20.729Z,101211.00
2019-02-18T03:54:51.280Z,101199.00
2019-02-18T03:57:21.620Z,101209.00
2019-02-18T03:59:52.135Z,101207.00
2019-02-18T04:02:23.655Z,101213.00
2019-02-18T04:04:54.335Z,101213.00
2019-02-18T04:07:24.860Z,101211.00
2019-02-18T04:09:55.214Z,101213.00
2019-02-18T04:12:25.511Z,101212.00
2019-02-18T04:14:55.923Z,101214.00
2019-02-18T04:17:26.279Z,101207.00
2019-02-18T04:19:58.915Z,101206.00
2019-02-18T04:22:29.611Z,101207.00
2019-02-18T04:24:59.997Z,101214.00
2019-02-18T04:27:30.648Z,101211.00
2019-02-18T04:30:01.141Z,101210.00
2019-02-18T04:32:32.052Z,101215.00
2019-02-18T04:35:02.900Z,101200.00
2019-02-18T04:37:34.663Z,101206.00
2019-02-18T04:40:08.334Z,101217.00
2019-02-18T04:42:39.032Z,101211.00
2019-02-18T04:45:09.964Z,101204.00
2019-02-18T04:47:40.619Z,101204.00
2019-02-18T04:50:12.147Z,101208.00
2019-02-18T04:52:43.755Z,101209.00
2019-02-18T04:55:14.462Z,101223.00
2019-02-18T04:57:45.144Z,101224.00
2019-02-18T05:00:15.929Z,101229.00
2019-02-18T05:02:46.271Z,101220.00
2019-02-18T05:05:16.968Z,101218.00
2019-02-18T05:07:47.467Z,101220.00
2019-02-18T05:10:17.932Z,101217.00
2019-02-18T05:12:48.656Z,101215.00
2019-02-18T05:15:18.922Z,101208.00
2019-02-18T05:17:49.429Z,101216.00
2019-02-18T05:20:20.925Z,101198.00
2019-02-18T05:22:51.511Z,101199.00
2019-02-18T05:25:22.014Z,101206.00
2019-02-18T05:27:52.577Z,101203.00
2019-02-18T05:30:22.952Z,101204.00
2019-02-18T05:32:53.379Z,101209.00
2019-02-18T05:35:23.757Z,101206.00
2019-02-18T05:37:54.638Z,101205.00
2019-02-18T05:40:25.074Z,101215.00
2019-02-18T05:42:55.461Z,101216.00
2019-02-18T05:45:25.962Z,101213.00
2019-02-18T05:47:56.341Z,101206.00
2019-02-18T05:50:27.234Z,101211.00
2019-02-18T05:52:57.619Z,101204.00
2019-02-18T05:55:31.106Z,101210.00
2019-02-18T05:58:01.640Z,101211.00
2019-02-18T06:00:32.084Z,101215.00
2019-02-18T06:03:02.328Z,101215.00
2019-02-18T06:05:32.808Z,101211.00
2019-02-18T06:08:03.064Z,101212.00
2019-02-18T06:10:33.270Z,101211.00
2019-02-18T06:13:04.602Z,101218.00
2019-02-18T06:15:34.998Z,101212.00
2019-02-18T06:18:05.225Z,101217.00
2019-02-18T06:20:35.745Z,101212.00
2019-02-18T06:23:06.145Z,101224.00
2019-02-18T06:25:36.587Z,101210.00
2019-02-18T06:28:08.512Z,101217.00
2019-02-18T06:30:39.813Z,101213.00
2019-02-18T06:33:10.596Z,101215.00
2019-02-18T06:35:42.008Z,101220.00
2019-02-18T06:38:12.702Z,101223.00
2019-02-18T06:40:44.193Z,101228.00
2019-02-18T06:43:15.426Z,101235.00
2019-02-18T06:46:02.861Z,101231.00
2019-02-18T06:48:35.866Z,101241.00
2019-02-18T06:51:06.840Z,101247.00
2019-02-18T06:53:37.594Z,101240.00
2019-02-18T06:56:09.955Z,101241.00
2019-02-18T06:59:00.963Z,101243.00
2019-02-18T07:01:53.382Z,101244.00
2019-02-18T07:04:48.557Z,101244.00
2019-02-18T07:07:28.018Z,101245.00
2019-02-18T07:10:09.613Z,101245.00
2019-02-18T07:12:44.023Z,101248.00
2019-02-18T07:15:14.761Z,101251.00
2019-02-18T07:17:45.646Z,101244.00
2019-02-18T07:20:16.398Z,101244.00
2019-02-18T07:22:47.181Z,101249.00
2019-02-18T07:25:20.685Z,101238.00
2019-02-18T07:27:51.423Z,101248.00
2019-02-18T07:30:22.319Z,101248.00
2019-02-18T07:32:53.319Z,101240.00
2019-02-18T07:35:26.944Z,101239.00
2019-02-18T07:37:57.914Z,101233.00
2019-02-18T07:40:29.065Z,101230.00
2019-02-18T07:43:00.182Z,101237.00
2019-02-18T07:45:31.184Z,101231.00
2019-02-18T07:48:01.713Z,101229.00
2019-02-18T07:50:32.679Z,101228.00
2019-02-18T07:53:03.921Z,101223.00
2019-02-18T07:55:35.336Z,101221.00
2019-02-18T07:58:06.335Z,101228.00
2019-02-18T08:00:38.519Z,101228.00
2019-02-18T08:03:09.597Z,101222.00
2019-02-18T08:05:40.202Z,101217.00
2019-02-18T08:08:11.307Z,101223.00
2019-02-18T08:10:42.870Z,101225.00
2019-02-18T08:13:13.796Z,101221.00
2019-02-18T08:15:44.335Z,101216.00
2019-02-18T08:18:17.025Z,101217.00
2019-02-18T08:20:48.225Z,101216.00
2019-02-18T08:23:19.483Z,101218.00
2019-02-18T08:25:50.554Z,101209.00
2019-02-18T08:28:21.373Z,101219.00
2019-02-18T08:30:52.205Z,101210.00
2019-02-18T08:33:25.685Z,101210.00
2019-02-18T08:35:56.293Z,101203.00
2019-02-18T08:38:27.017Z,101198.00
2019-02-18T08:40:58.221Z,101210.00
2019-02-18T08:43:29.247Z,101205.00
2019-02-18T08:46:01.571Z,101204.00
2019-02-18T08:48:32.689Z,101209.00
2019-02-18T08:51:03.727Z,101204.00
2019-02-18T08:53:34.327Z,101193.00
2019-02-18T08:56:07.411Z,101193.00
2019-02-18T08:58:38.189Z,101194.00
2019-02-18T09:01:09.240Z,101193.00
2019-02-18T09:03:40.061Z,101194.00
2019-02-18T09:06:12.187Z,101199.00
2019-02-18T09:08:42.899Z,101194.00
2019-02-18T09:11:13.503Z,101191.00
2019-02-18T09:13:44.302Z,101200.00
2019-02-18T09:16:15.033Z,101197.00
2019-02-18T09:18:45.969Z,101190.00
2019-02-18T09:21:18.023Z,101185.00
2019-02-18T09:24:10.819Z,101187.00
2019-02-18T09:26:44.241Z,101184.00
2019-02-18T09:29:14.285Z,101186.00
2019-02-18T09:31:45.333Z,101177.00
2019-02-18T09:34:18.299Z,101191.00
2019-02-18T09:36:50.645Z,101175.00
2019-02-18T09:39:30.721Z,101183.00
2019-02-18T09:41:55.059Z,101174.00
2019-02-18T09:44:26.250Z,101177.00
2019-02-18T09:46:56.852Z,101165.00
2019-02-18T09:49:27.615Z,101165.00
2019-02-18T09:51:58.169Z,101166.00
2019-02-18T09:54:28.977Z,101161.00
2019-02-18T09:57:00.850Z,101159.00
2019-02-18T09:59:31.566Z,101151.00
2019-02-18T10:02:02.151Z,101149.00
2019-02-18T10:04:33.029Z,101137.00
2019-02-18T10:07:03.885Z,101150.00
2019-02-18T10:09:34.714Z,101148.00
2019-02-18T10:12:05.573Z,101141.00
2019-02-18T10:14:36.328Z,101141.00
2019-02-18T10:17:06.887Z,101132.00
2019-02-18T10:19:37.573Z,101142.00
2019-02-18T10:22:07.973Z,101134.00
2019-02-18T10:24:50.212Z,101141.00
2019-02-18T10:27:11.307Z,101147.00
2019-02-18T10:29:41.804Z,101145.00
2019-02-18T10:32:13.545Z,101134.00
2019-02-18T10:34:44.207Z,101138.00
2019-02-18T10:37:16.326Z,101144.00
2019-02-18T10:39:46.934Z,101125.00
2019-02-18T10:42:17.588Z,101126.00
2019-02-18T10:44:48.132Z,101132.00
2019-02-18T10:47:19.138Z,101131.00
2019-02-18T10:49:49.685Z,101124.00
2019-02-18T10:52:22.561Z,101126.00
2019-02-18T10:54:53.204Z,101118.00
2019-02-18T10:57:23.873Z,101116.00
2019-02-18T10:59:55.151Z,101111.00
2019-02-18T11:02:28.956Z,101113.00
2019-02-18T11:04:59.660Z,101095.00
2019-02-18T11:07:30.609Z,101095.00
2019-02-18T11:10:01.572Z,101088.00
2019-02-18T11:12:32.192Z,101085.00
2019-02-18T11:15:03.121Z,101090.00
2019-02-18T11:17:38.991Z,101091.00
2019-02-18T11:20:07.044Z,101085.00
2019-02-18T11:22:38.227Z,101085.00
2019-02-18T11:25:10.395Z,101078.00
2019-02-18T11:27:41.106Z,101082.00
2019-02-18T11:30:13.504Z,101068.00
2019-02-18T11:32:45.056Z,101073.00
2019-02-18T11:35:15.800Z,101069.00
2019-02-18T11:37:46.805Z,101060.00
2019-02-18T11:40:17.168Z,101073.00
2019-02-18T11:42:50.728Z,101062.00
2019-02-18T11:45:21.794Z,101059.00
2019-02-18T11:47:55.684Z,101071.00
2019-02-18T11:50:26.388Z,101057.00
2019-02-18T11:52:57.094Z,101056.00
2019-02-18T11:55:28.170Z,101058.00
2019-02-18T11:58:01.929Z,101057.00
2019-02-18T12:00:33.433Z,101051.00
2019-02-18T12:03:12.077Z,101054.00
2019-02-18T12:05:36.930Z,101061.00
2019-02-18T12:08:07.899Z,101050.00
2019-02-18T12:10:38.566Z,101054.00
2019-02-18T12:13:09.140Z,101052.00
2019-02-18T12:15:39.821Z,101045.00
2019-02-18T12:18:10.587Z,101044.00
2019-02-18T12:20:41.356Z,101048.00
2019-02-18T12:23:11.881Z,101041.00
2019-02-18T12:25:42.622Z,101028.00
2019-02-18T12:28:13.236Z,101040.00
2019-02-18T12:30:43.798Z,101036.00
2019-02-18T12:33:14.569Z,101017.00
2019-02-18T12:35:45.745Z,101017.00
2019-02-18T12:38:17.384Z,101019.00
2019-02-18T12:40:48.157Z,101010.00
2019-02-18T12:43:18.884Z,101005.00
2019-02-18T12:45:51.834Z,101006.00
2019-02-18T12:48:21.754Z,100994.00
2019-02-18T12:50:52.556Z,100993.00
2019-02-18T12:53:23.194Z,100983.00
2019-02-18T12:55:53.682Z,100985.00
2019-02-18T12:58:24.322Z,100985.00
2019-02-18T13:00:54.998Z,100988.00
2019-02-18T13:03:26.188Z,100981.00
2019-02-18T13:05:56.736Z,100978.00
2019-02-18T13:08:27.342Z,100968.00
2019-02-18T13:11:00.831Z,100963.00
2019-02-18T13:13:31.637Z,100962.00
2019-02-18T13:16:03.244Z,100957.00
2019-02-18T13:18:34.287Z,100960.00
2019-02-18T13:21:04.706Z,100954.00
2019-02-18T13:23:35.316Z,100953.00
2019-02-18T13:26:05.872Z,100947.00
2019-02-18T13:28:36.614Z,100944.00
2019-02-18T13:31:07.178Z,100932.00
2019-02-18T13:33:39.336Z,100939.00
2019-02-18T13:36:15.208Z,100940.00
2019-02-18T13:38:45.841Z,100935.00
2019-02-18T13:41:19.096Z,100932.00
2019-02-18T13:43:49.777Z,100934.00
2019-02-18T13:46:20.431Z,100926.00
2019-02-18T13:48:51.101Z,100925.00
2019-02-18T13:51:24.179Z,100923.00
2019-02-18T13:53:53.945Z,100927.00
2019-02-18T13:56:24.946Z,100924.00
2019-02-18T13:58:55.654Z,100922.00
2019-02-18T14:01:26.388Z,100916.00
2019-02-18T14:03:56.828Z,100920.00
2019-02-18T14:06:27.478Z,100919.00
2019-02-18T14:08:58.074Z,100910.00
2019-02-18T14:11:29.291Z,100910.00
2019-02-18T14:13:59.932Z,100905.00
2019-02-18T14:16:30.714Z,100903.00
2019-02-18T14:19:03.903Z,100911.00
2019-02-18T14:21:34.438Z,100915.00
2019-02-18T14:24:05.476Z,100918.00
2019-02-18T14:26:36.109Z,100903.00
2019-02-18T14:29:08.076Z,100896.00
2019-02-18T14:31:38.685Z,100893.00
2019-02-18T14:34:19.317Z,100885.00
2019-02-18T14:36:49.875Z,100896.00
2019-02-18T14:39:23.470Z,100895.00
2019-02-18T14:41:54.101Z,100890.00
2019-02-18T14:44:24.463Z,100893.00
2019-02-18T14:46:55.134Z,100893.00
2019-02-18T14:49:26.229Z,100887.00
2019-02-18T14:51:56.765Z,100890.00
2019-02-18T14:54:27.501Z,100888.00
2019-02-18T14:56:58.024Z,100878.00
2019-02-18T14:59:28.968Z,100869.00
2019-02-18T15:01:59.830Z,100873.00
2019-02-18T15:04:30.663Z,100868.00
2019-02-18T15:07:01.313Z,100866.00
2019-02-18T15:09:31.873Z,100871.00
2019-02-18T15:12:02.361Z,100870.00
2019-02-18T15:14:34.645Z,100866.00
2019-02-18T15:17:05.589Z,100865.00
2019-02-18T15:19:36.923Z,100866.00
2019-02-18T15:22:07.667Z,100863.00
2019-02-18T15:24:40.270Z,100859.00
2019-02-18T15:27:10.885Z,100862.00
2019-02-18T15:29:41.579Z,100859.00
2019-02-18T15:32:12.601Z,100854.00
2019-02-18T15:34:43.316Z,100848.00
2019-02-18T15:37:15.208Z,100843.00
2019-02-18T15:39:45.791Z,100836.00
2019-02-18T15:42:16.464Z,100835.00
2019-02-18T15:44:46.945Z,100835.00
2019-02-18T15:47:17.589Z,100829.00
2019-02-18T15:49:48.251Z,100826.00
2019-02-18T15:52:19.058Z,100821.00
2019-02-18T15:54:53.790Z,100829.00
2019-02-18T15:57:27.115Z,100825.00
2019-02-18T15:59:57.847Z,100826.00
2019-02-18T16:02:28.935Z,100822.00
2019-02-18T16:04:59.374Z,100822.00
2019-02-18T16:07:29.977Z,100815.00
2019-02-18T16:10:00.623Z,100815.00
2019-02-18T16:12:31.535Z,100822.00
2019-02-18T16:15:02.429Z,100810.00
2019-02-18T16:17:33.009Z,100816.00
2019-02-18T16:20:03.776Z,100811.00
2019-02-18T16:22:34.344Z,100814.00
2019-02-18T16:25:05.006Z,100810.00
2019-02-18T16:27:35.537Z,100810.00
2019-02-18T16:30:07.114Z,100805.00
2019-02-18T16:32:37.796Z,100803.00
2019-02-18T16:35:08.934Z,100808.00
2019-02-18T16:37:41.507Z,100797.00
2019-02-18T16:40:16.235Z,100798.00
2019-02-18T16:42:46.583Z,100799.00
2019-02-18T16:45:16.959Z,100792.00
2019-02-18T16:47:47.380Z,100791.00
2019-02-18T16:50:17.763Z,100795.00
2019-02-18T16:52:47.920Z,100796.00
2019-02-18T16:55:18.229Z,100792.00
2019-02-18T16:57:48.449Z,100781.00
2019-02-18T17:00:30.175Z,100786.00
2019-02-18T17:03:00.356Z,100793.00
2019-02-18T17:05:30.724Z,100778.00
2019-02-18T17:08:00.877Z,100788.00
2019-02-18T17:10:34.506Z,100789.00
2019-02-18T17:13:08.212Z,100784.00
2019-02-18T17:15:36.723Z,100779.00
2019-02-18T17:18:07.618Z,100785.00
2019-02-18T17:20:38.075Z,100779.00
2019-02-18T17:23:10.853Z,100781.00
2019-02-18T17:25:41.285Z,100776.00
2019-02-18T17:28:11.705Z,100781.00
2019-02-18T17:30:43.351Z,100779.00
2019-02-18T17:33:13.805Z,100766.00
2019-02-18T17:35:44.928Z,100771.00
2019-02-18T17:38:15.747Z,100771.00
2019-02-18T17:40:46.244Z,100762.00
2019-02-18T17:43:16.730Z,100761.00
2019-02-18T17:45:47.440Z,100755.00
2019-02-18T17:48:17.819Z,100763.00
2019-02-18T17:50:48.567Z,100755.00
2019-02-18T17:53:19.317Z,100753.00
2019-02-18T17:55:49.776Z,100753.00
2019-02-18T17:58:20.334Z,100749.00
2019-02-18T18:00:53.407Z,100751.00
2019-02-18T18:03:24.739Z,100741.00
2019-02-18T18:05:55.411Z,100738.00
2019-02-18T18:08:25.883Z,100744.00
2019-02-18T18:10:56.407Z,100742.00
2019-02-18T18:13:26.949Z,100738.00
2019-02-18T18:15:57.304Z,100739.00
2019-02-18T18:18:28.114Z,100733.00
2019-02-18T18:20:58.827Z,100735.00
2019-02-18T18:23:29.686Z,100728.00
2019-02-18T18:26:00.083Z,100724.00
2019-02-18T18:28:30.622Z,100723.00
2019-02-18T18:31:01.667Z,100722.00
2019-02-18T18:33:32.181Z,100723.00
2019-02-18T18:36:02.706Z,100735.00
2019-02-18T18:38:33.100Z,100725.00
2019-02-18T18:41:04.512Z,100719.00
2019-02-18T18:43:35.960Z,100719.00
2019-02-18T18:46:06.584Z,100714.00
2019-02-18T18:48:37.638Z,100712.00
2019-02-18T18:51:08.023Z,100707.00
2019-02-18T18:53:38.619Z,100703.00
2019-02-18T18:56:09.394Z,100713.00
2019-02-18T18:58:39.896Z,100707.00
2019-02-18T19:01:10.411Z,100716.00
2019-02-18T19:03:41.090Z,100725.00
2019-02-18T19:06:12.358Z,100716.00
2019-02-18T19:08:43.037Z,100715.00
2019-02-18T19:11:15.256Z,100725.00
2019-02-18T19:13:45.661Z,100730.00
2019-02-18T19:16:16.177Z,100723.00
2019-02-18T19:18:46.694Z,100725.00
2019-02-18T19:21:17.156Z,100725.00
2019-02-18T19:23:47.929Z,100731.00
2019-02-18T19:26:18.432Z,100732.00
2019-02-18T19:28:50.212Z,100731.00
2019-02-18T19:31:20.830Z,100740.00
2019-02-18T19:33:51.450Z,100736.00
2019-02-18T19:36:22.112Z,100739.00
2019-02-18T19:38:52.972Z,100739.00
2019-02-18T19:41:25.290Z,100734.00
2019-02-18T19:43:55.668Z,100717.00
2019-02-18T19:46:29.362Z,100722.00
2019-02-18T19:48:59.860Z,100729.00
2019-02-18T19:51:30.434Z,100724.00
2019-02-18T19:54:00.950Z,100739.00
2019-02-18T19:56:31.544Z,100744.00
2019-02-18T19:59:02.369Z,100724.00
2019-02-18T20:01:33.168Z,100740.00
2019-02-18T20:04:03.961Z,100724.00
2019-02-18T20:06:34.782Z,100720.00
2019-02-18T20:09:07.138Z,100728.00
2019-02-18T20:11:41.919Z,100732.00
2019-02-18T20:14:14.670Z,100725.00
2019-02-18T20:16:45.312Z,100730.00
2019-02-18T20:19:16.113Z,100734.00
2019-02-18T20:21:46.717Z,100731.00
2019-02-18T20:24:19.633Z,100724.00
2019-02-18T20:26:53.051Z,100727.00
2019-02-18T20:29:23.848Z,100734.00
2019-02-18T20:31:54.832Z,100730.00
2019-02-18T20:34:26.366Z,100734.00
2019-02-18T20:36:57.769Z,100730.00
2019-02-18T20:39:28.550Z,100730.00
2019-02-18T20:41:59.125Z,100716.00
2019-02-18T20:44:29.722Z,100714.00
2019-02-18T20:47:00.316Z,100716.00
2019-02-18T20:49:31.009Z,100719.00
2019-02-18T20:52:01.721Z,100717.00
2019-02-18T20:54:33.576Z,100718.00
2019-02-18T20:57:04.529Z,100718.00
2019-02-18T20:59:35.228Z,100727.00
2019-02-18T21:02:08.528Z,100725.00
2019-02-18T21:04:39.096Z,100725.00
2019-02-18T21:07:09.833Z,100710.00
2019-02-18T21:09:42.351Z,100718.00
2019-02-18T21:12:19.783Z,100698.00
2019-02-18T21:14:45.226Z,100710.00
2019-02-18T21:17:15.831Z,100707.00
2019-02-18T21:19:46.393Z,100688.00
2019-02-18T21:22:16.765Z,100699.00
2019-02-18T21:24:47.382Z,100717.00
2019-02-18T21:27:19.233Z,100703.00
2019-02-18T21:29:49.888Z,100709.00
2019-02-18T21:32:20.486Z,100714.00
2019-02-18T21:34:51.310Z,100695.00
2019-02-18T21:37:22.176Z,100702.00
2019-02-18T21:39:52.726Z,100697.00
2019-02-18T21:42:23.588Z,100705.00
2019-02-18T21:44:54.129Z,100686.00
2019-02-18T21:47:24.551Z,100685.00
2019-02-18T21:49:54.888Z,100679.00
2019-02-18T21:52:25.554Z,100684.00
2019-02-18T21:54:56.746Z,100680.00
2019-02-18T21:57:27.452Z,100677.00
2019-02-18T21:59:58.131Z,100683.00
2019-02-18T22:02:28.715Z,100694.00
2019-02-18T22:04:59.466Z,100690.00
2019-02-18T22:07:29.923Z,100688.00
2019-02-18T22:10:00.416Z,100688.00
2019-02-18T22:12:31.177Z,100697.00
2019-02-18T22:15:01.625Z,100688.00
2019-02-18T22:17:32.088Z,100698.00
2019-02-18T22:20:02.472Z,100684.00
2019-02-18T22:22:33.886Z,100694.00
2019-02-18T22:25:04.616Z,100689.00
2019-02-18T22:27:35.054Z,100698.00
2019-02-18T22:30:06.965Z,100690.00
2019-02-18T22:32:39.413Z,100692.00
2019-02-18T22:35:12.711Z,100689.00
2019-02-18T22:37:44.004Z,100688.00
2019-02-18T22:40:14.841Z,100690.00
2019-02-18T22:42:45.413Z,100680.00
2019-02-18T22:45:16.711Z,100691.00
2019-02-18T22:47:47.377Z,100680.00
2019-02-18T22:50:18.232Z,100677.00
2019-02-18T22:52:48.820Z,100675.00
2019-02-18T22:55:19.316Z,100667.00
2019-02-18T22:57:49.616Z,100667.00
2019-02-18T23:00:58.035Z,100670.00
2019-02-18T23:03:28.362Z,100667.00
2019-02-18T23:05:58.924Z,100674.00
2019-02-18T23:08:29.329Z,100686.00
2019-02-18T23:10:59.990Z,100678.00
2019-02-18T23:13:30.471Z,100680.00
2019-02-18T23:16:00.960Z,100682.00
2019-02-18T23:18:31.566Z,100682.00
2019-02-18T23:21:01.842Z,100672.00
2019-02-18T23:23:32.579Z,100673.00
2019-02-18T23:26:06.433Z,100669.00
2019-02-18T23:28:36.793Z,100668.00
2019-02-18T23:31:07.242Z,100669.00
2019-02-18T23:33:37.683Z,100672.00
2019-02-18T23:36:07.965Z,100670.00
2019-02-18T23:38:38.399Z,100669.00
2019-02-18T23:41:11.093Z,100664.00
2019-02-18T23:43:41.558Z,100675.00
2019-02-18T23:46:12.037Z,100661.00
2019-02-18T23:48:42.590Z,100666.00
2019-02-18T23:51:13.078Z,100664.00
2019-02-18T23:53:43.405Z,100660.00
2019-02-18T23:56:13.658Z,100664.00
2019-02-18T23:58:43.931Z,100656.00
